sensor_id;sensor_type;location;lat;lon;timestamp;pressure;altitude;pressure_sealevel;temperature;humidity
69027;BME280;56080;47.594;19.116;2023-08-20T00:09:54;100542;;;21.80;100.00
69027;BME280;56080;47.594;19.116;2023-08-20T00:19:56;100542;;;21.82;100.00
69027;BME280;56080;47.594;19.116;2023-08-20T00:29:57;100544;;;21.87;100.00
69027;BME280;56080;47.594;19.116;2023-08-20T00:39:59;100541;;;21.61;100.00
69027;BME280;56080;47.594;19.116;2023-08-20T00:50:01;100533;;;21.71;100.00
69027;BME280;56080;47.594;19.116;2023-08-20T01:00:07;100539;;;21.68;100.00
69027;BME280;56080;47.594;19.116;2023-08-20T01:10:09;100544;;;21.69;100.00
69027;BME280;56080;47.594;19.116;2023-08-20T01:20:07;100549;;;21.46;100.00
69027;BME280;56080;47.594;19.116;2023-08-20T01:30:09;100538;;;21.43;100.00
69027;BME280;56080;47.594;19.116;2023-08-20T01:50:12;100540;;;21.56;100.00
69027;BME280;56080;47.594;19.116;2023-08-20T02:00:14;100544;;;21.14;100.00
69027;BME280;56080;47.594;19.116;2023-08-20T02:10:15;100545;;;21.27;100.00
69027;BME280;56080;47.594;19.116;2023-08-20T02:20:18;100541;;;21.15;100.00
69027;BME280;56080;47.594;19.116;2023-08-20T02:30:19;100534;;;21.18;100.00
69027;BME280;56080;47.594;19.116;2023-08-20T02:40:21;100542;;;21.39;100.00
69027;BME280;56080;47.594;19.116;2023-08-20T02:50:22;100537;;;21.35;100.00
69027;BME280;56080;47.594;19.116;2023-08-20T03:00:24;100544;;;21.16;100.00
69027;BME280;56080;47.594;19.116;2023-08-20T03:10:26;100540;;;20.92;100.00
69027;BME280;56080;47.594;19.116;2023-08-20T03:20:28;100548;;;20.97;100.00
69027;BME280;56080;47.594;19.116;2023-08-20T03:30:29;100547;;;20.98;100.00
69027;BME280;56080;47.594;19.116;2023-08-20T03:40:31;100554;;;20.76;100.00
69027;BME280;56080;47.594;19.116;2023-08-20T03:50:32;100565;;;20.97;100.00
69027;BME280;56080;47.594;19.116;2023-08-20T04:00:34;100568;;;20.95;100.00
69027;BME280;56080;47.594;19.116;2023-08-20T04:10:42;100572;;;20.88;100.00
69027;BME280;56080;47.594;19.116;2023-08-20T04:20:37;100572;;;20.97;100.00
69027;BME280;56080;47.594;19.116;2023-08-20T04:30:39;100580;;;20.93;100.00
69027;BME280;56080;47.594;19.116;2023-08-20T04:40:41;100583;;;20.90;100.00
69027;BME280;56080;47.594;19.116;2023-08-20T04:50:42;100589;;;20.91;100.00
69027;BME280;56080;47.594;19.116;2023-08-20T05:00:44;100605;;;21.15;100.00
69027;BME280;56080;47.594;19.116;2023-08-20T05:10:46;100604;;;21.46;100.00
69027;BME280;56080;47.594;19.116;2023-08-20T05:20:48;100602;;;22.30;100.00
69027;BME280;56080;47.594;19.116;2023-08-20T05:30:57;100613;;;24.85;83.99
69027;BME280;56080;47.594;19.116;2023-08-20T05:40:52;100611;;;26.39;73.69
69027;BME280;56080;47.594;19.116;2023-08-20T05:50:55;100615;;;26.90;70.58
69027;BME280;56080;47.594;19.116;2023-08-20T06:00:57;100620;;;27.45;67.98
69027;BME280;56080;47.594;19.116;2023-08-20T06:11:00;100622;;;27.90;65.76
69027;BME280;56080;47.594;19.116;2023-08-20T06:21:03;100622;;;26.59;71.00
69027;BME280;56080;47.594;19.116;2023-08-20T06:31:06;100633;;;25.74;75.17
69027;BME280;56080;47.594;19.116;2023-08-20T06:41:08;100636;;;25.42;77.89
69027;BME280;56080;47.594;19.116;2023-08-20T06:51:11;100631;;;25.14;79.42
69027;BME280;56080;47.594;19.116;2023-08-20T07:01:13;100629;;;25.27;79.09
69027;BME280;56080;47.594;19.116;2023-08-20T07:11:15;100635;;;25.93;78.20
69027;BME280;56080;47.594;19.116;2023-08-20T07:21:17;100634;;;26.69;72.61
69027;BME280;56080;47.594;19.116;2023-08-20T07:31:20;100638;;;26.45;74.73
69027;BME280;56080;47.594;19.116;2023-08-20T07:41:22;100637;;;26.33;74.41
69027;BME280;56080;47.594;19.116;2023-08-20T07:51:25;100638;;;26.49;73.90
69027;BME280;56080;47.594;19.116;2023-08-20T08:01:28;100635;;;28.19;69.33
69027;BME280;56080;47.594;19.116;2023-08-20T08:11:30;100638;;;31.96;54.84
69027;BME280;56080;47.594;19.116;2023-08-20T08:21:33;100637;;;35.31;42.62
69027;BME280;56080;47.594;19.116;2023-08-20T08:31:36;100637;;;37.09;38.76
69027;BME280;56080;47.594;19.116;2023-08-20T08:41:39;100637;;;36.31;39.03
69027;BME280;56080;47.594;19.116;2023-08-20T08:51:42;100630;;;38.31;35.15
69027;BME280;56080;47.594;19.116;2023-08-20T09:01:45;100638;;;37.34;38.12
69027;BME280;56080;47.594;19.116;2023-08-20T09:11:49;100632;;;36.69;39.00
69027;BME280;56080;47.594;19.116;2023-08-20T09:21:53;100632;;;36.49;38.85
69027;BME280;56080;47.594;19.116;2023-08-20T09:31:59;100632;;;37.07;37.76
69027;BME280;56080;47.594;19.116;2023-08-20T09:41:57;100637;;;33.51;44.07
69027;BME280;56080;47.594;19.116;2023-08-20T09:52:01;100630;;;32.47;47.19
69027;BME280;56080;47.594;19.116;2023-08-20T10:02:03;100624;;;32.39;46.70
69027;BME280;56080;47.594;19.116;2023-08-20T10:12:06;100615;;;32.09;48.48
69027;BME280;56080;47.594;19.116;2023-08-20T10:22:09;100608;;;31.84;47.74
69027;BME280;56080;47.594;19.116;2023-08-20T10:32:13;100604;;;31.47;47.85
69027;BME280;56080;47.594;19.116;2023-08-20T10:52:18;100589;;;31.19;45.79
69027;BME280;56080;47.594;19.116;2023-08-20T11:02:20;100585;;;31.24;46.97
69027;BME280;56080;47.594;19.116;2023-08-20T11:12:23;100580;;;31.05;44.90
69027;BME280;56080;47.594;19.116;2023-08-20T11:32:29;100577;;;30.88;47.32
69027;BME280;56080;47.594;19.116;2023-08-20T11:52:33;100555;;;31.06;48.28
69027;BME280;56080;47.594;19.116;2023-08-20T12:02:42;100551;;;31.06;49.04
69027;BME280;56080;47.594;19.116;2023-08-20T12:12:38;100549;;;30.99;47.39
69027;BME280;56080;47.594;19.116;2023-08-20T12:22:41;100541;;;30.90;48.26
69027;BME280;56080;47.594;19.116;2023-08-20T12:32:44;100531;;;30.79;48.87
69027;BME280;56080;47.594;19.116;2023-08-20T12:42:46;100534;;;30.98;49.40
69027;BME280;56080;47.594;19.116;2023-08-20T12:52:51;100533;;;30.85;49.19
69027;BME280;56080;47.594;19.116;2023-08-20T13:12:54;100516;;;30.17;50.90
69027;BME280;56080;47.594;19.116;2023-08-20T13:23:00;100502;;;34.87;39.22
69027;BME280;56080;47.594;19.116;2023-08-20T13:33:00;100487;;;40.86;28.23
69027;BME280;56080;47.594;19.116;2023-08-20T13:43:03;100492;;;34.58;36.84
69027;BME280;56080;47.594;19.116;2023-08-20T13:53:07;100475;;;40.30;29.45
69027;BME280;56080;47.594;19.116;2023-08-20T14:03:09;100468;;;40.20;28.80
69027;BME280;56080;47.594;19.116;2023-08-20T14:13:12;100471;;;34.97;35.83
69027;BME280;56080;47.594;19.116;2023-08-20T14:23:16;100466;;;35.91;35.73
69027;BME280;56080;47.594;19.116;2023-08-20T14:33:18;100448;;;41.51;25.97
69027;BME280;56080;47.594;19.116;2023-08-20T14:43:21;100446;;;42.10;25.72
69027;BME280;56080;47.594;19.116;2023-08-20T14:53:25;100442;;;41.62;26.40
69027;BME280;56080;47.594;19.116;2023-08-20T15:03:28;100449;;;41.24;26.67
69027;BME280;56080;47.594;19.116;2023-08-20T15:13:32;100442;;;39.94;27.45
69027;BME280;56080;47.594;19.116;2023-08-20T15:23:35;100441;;;39.67;28.94
69027;BME280;56080;47.594;19.116;2023-08-20T15:33:38;100444;;;39.72;29.03
69027;BME280;56080;47.594;19.116;2023-08-20T15:43:42;100440;;;39.69;29.95
69027;BME280;56080;47.594;19.116;2023-08-20T15:53:45;100438;;;39.42;30.73
69027;BME280;56080;47.594;19.116;2023-08-20T16:03:48;100443;;;40.07;30.29
69027;BME280;56080;47.594;19.116;2023-08-20T16:13:52;100448;;;38.57;33.22
69027;BME280;56080;47.594;19.116;2023-08-20T16:23:55;100451;;;37.75;36.06
69027;BME280;56080;47.594;19.116;2023-08-20T16:44:01;100461;;;35.41;41.90
69027;BME280;56080;47.594;19.116;2023-08-20T16:54:06;100462;;;34.80;44.12
69027;BME280;56080;47.594;19.116;2023-08-20T17:04:07;100463;;;34.72;44.11
69027;BME280;56080;47.594;19.116;2023-08-20T17:14:10;100459;;;34.25;46.26
69027;BME280;56080;47.594;19.116;2023-08-20T17:24:13;100459;;;33.60;47.87
69027;BME280;56080;47.594;19.116;2023-08-20T17:34:16;100456;;;33.21;48.87
69027;BME280;56080;47.594;19.116;2023-08-20T17:44:18;100458;;;32.77;49.78
69027;BME280;56080;47.594;19.116;2023-08-20T17:54:21;100461;;;32.20;51.51
69027;BME280;56080;47.594;19.116;2023-08-20T18:04:23;100457;;;31.77;53.05
69027;BME280;56080;47.594;19.116;2023-08-20T18:14:27;100467;;;31.41;54.13
69027;BME280;56080;47.594;19.116;2023-08-20T18:24:28;100483;;;31.93;53.12
69027;BME280;56080;47.594;19.116;2023-08-20T18:34:31;100497;;;31.45;56.00
69027;BME280;56080;47.594;19.116;2023-08-20T18:44:36;100501;;;30.62;59.54
69027;BME280;56080;47.594;19.116;2023-08-20T18:54:38;100510;;;31.09;59.65
69027;BME280;56080;47.594;19.116;2023-08-20T19:04:38;100520;;;33.70;51.07
69027;BME280;56080;47.594;19.116;2023-08-20T19:14:40;100517;;;33.26;50.96
69027;BME280;56080;47.594;19.116;2023-08-20T19:24:43;100534;;;32.86;51.23
69027;BME280;56080;47.594;19.116;2023-08-20T19:34:46;100541;;;33.42;51.55
69027;BME280;56080;47.594;19.116;2023-08-20T19:44:48;100550;;;31.60;59.32
69027;BME280;56080;47.594;19.116;2023-08-20T20:04:53;100558;;;29.19;68.10
69027;BME280;56080;47.594;19.116;2023-08-20T20:14:55;100573;;;28.89;68.43
69027;BME280;56080;47.594;19.116;2023-08-20T20:24:57;100573;;;29.14;67.48
69027;BME280;56080;47.594;19.116;2023-08-20T20:34:59;100576;;;28.90;67.15
69027;BME280;56080;47.594;19.116;2023-08-20T20:45:02;100582;;;28.53;65.87
69027;BME280;56080;47.594;19.116;2023-08-20T20:55:04;100576;;;27.02;70.76
69027;BME280;56080;47.594;19.116;2023-08-20T21:05:05;100579;;;27.51;76.75
69027;BME280;56080;47.594;19.116;2023-08-20T21:15:07;100587;;;27.19;78.79
69027;BME280;56080;47.594;19.116;2023-08-20T21:25:10;100585;;;25.88;84.32
69027;BME280;56080;47.594;19.116;2023-08-20T21:35:11;100587;;;25.47;88.40
69027;BME280;56080;47.594;19.116;2023-08-20T21:45:13;100594;;;25.23;86.77
69027;BME280;56080;47.594;19.116;2023-08-20T21:55:15;100598;;;25.03;90.32
69027;BME280;56080;47.594;19.116;2023-08-20T22:05:19;100599;;;24.96;91.25
69027;BME280;56080;47.594;19.116;2023-08-20T22:15:20;100604;;;25.07;91.57
69027;BME280;56080;47.594;19.116;2023-08-20T22:25:21;100608;;;24.89;91.47
69027;BME280;56080;47.594;19.116;2023-08-20T22:35:23;100608;;;24.62;92.21
69027;BME280;56080;47.594;19.116;2023-08-20T22:45:26;100612;;;24.64;92.17
69027;BME280;56080;47.594;19.116;2023-08-20T22:55:29;100611;;;24.49;92.18
69027;BME280;56080;47.594;19.116;2023-08-20T23:05:29;100603;;;24.38;92.89
69027;BME280;56080;47.594;19.116;2023-08-20T23:15:31;100596;;;24.38;92.16
69027;BME280;56080;47.594;19.116;2023-08-20T23:25:33;100601;;;24.13;92.68
69027;BME280;56080;47.594;19.116;2023-08-20T23:35:35;100599;;;23.94;94.90
69027;BME280;56080;47.594;19.116;2023-08-20T23:45:37;100612;;;23.91;94.77
69027;BME280;56080;47.594;19.116;2023-08-20T23:55:39;100613;;;23.96;94.17
